Time;durP1;ratioP1;P1;durP2;ratioP2;P2;SDS_P1;SDS_P2;PMS_P1;PMS_P2;Temp;Humidity;BMP_temperature;BMP_pressure;BME280_temperature;BME280_humidity;BME280_pressure;Samples;Min_cycle;Max_cycle;Signal;HPM_P1;HPM_P2
2022/05/16 00:01:54;;;;;;;1.70;1.30;;;23.20;69.10;;;;;;5021785;28;20503;-60
2022/05/16 00:04:20;;;;;;;3.00;1.40;;;23.20;69.10;;;;;;5036039;28;20159;-61
2022/05/16 00:06:46;;;;;;;2.38;1.40;;;23.10;69.10;;;;;;5035918;28;20099;-61
2022/05/16 00:09:11;;;;;;;2.13;1.60;;;23.10;69.20;;;;;;5038717;28;20031;-63
2022/05/16 00:11:37;;;;;;;2.85;1.20;;;23.10;69.30;;;;;;5021274;28;20029;-60
2022/05/16 00:14:02;;;;;;;2.58;1.45;;;23.10;70.10;;;;;;5038730;28;20351;-61
2022/05/16 00:16:28;;;;;;;6.05;1.38;;;23.10;69.50;;;;;;5036631;28;20120;-62
2022/05/16 00:18:53;;;;;;;3.03;1.60;;;23.10;69.60;;;;;;5037639;28;20143;-62
2022/05/16 00:21:19;;;;;;;3.38;1.50;;;23.10;69.80;;;;;;5037156;28;20182;-60
2022/05/16 00:23:45;;;;;;;4.78;1.60;;;23.00;69.70;;;;;;5038113;28;20059;-63
2022/05/16 00:26:10;;;;;;;3.03;1.33;;;23.00;69.60;;;;;;5038834;28;20548;-61
2022/05/16 00:28:36;;;;;;;3.10;1.48;;;22.90;69.70;;;;;;5039411;28;20536;-61
2022/05/16 00:31:01;;;;;;;2.85;1.38;;;22.90;69.70;;;;;;5019181;28;20611;-62
2022/05/16 00:33:27;;;;;;;2.10;1.40;;;22.90;70.40;;;;;;5037502;28;20126;-63
2022/05/16 00:35:52;;;;;;;5.72;1.40;;;22.90;69.80;;;;;;5023332;28;20047;-61
2022/05/16 00:38:18;;;;;;;2.47;1.40;;;22.90;69.90;;;;;;5039902;28;20021;-61
2022/05/16 00:40:43;;;;;;;2.67;1.67;;;22.90;69.90;;;;;;5040322;28;20116;-62
2022/05/16 00:43:10;;;;;;;7.40;1.40;;;22.90;69.80;;;;;;5037894;28;20222;-62
2022/05/16 00:45:36;;;;;;;7.10;1.27;;;22.90;69.90;;;;;;5021218;28;20044;-61
2022/05/16 00:48:02;;;;;;;2.70;1.33;;;22.80;69.90;;;;;;5038413;28;20021;-62
2022/05/16 00:50:28;;;;;;;2.17;1.40;;;22.80;69.90;;;;;;5022277;28;20275;-61
2022/05/16 00:52:53;;;;;;;1.63;1.13;;;22.80;70.00;;;;;;5020836;28;20072;-62
2022/05/16 00:55:33;;;;;;;3.70;1.50;;;22.80;70.10;;;;;;5024648;28;20040;-62
2022/05/16 00:58:01;;;;;;;2.47;1.10;;;22.60;70.10;;;;;;5022980;28;20033;-62
2022/05/16 01:00:34;;;;;;;3.92;1.25;;;22.80;70.40;;;;;;5021012;28;20160;-61
2022/05/16 01:05:47;;;;;;;2.15;1.30;;;22.70;70.40;;;;;;5041448;28;20040;-61
2022/05/16 01:08:15;;;;;;;2.10;1.48;;;22.70;70.70;;;;;;5043486;28;20021;-61
2022/05/16 01:10:41;;;;;;;2.92;1.55;;;22.70;71.30;;;;;;5040427;28;20259;-62
2022/05/16 01:13:07;;;;;;;2.72;1.45;;;22.60;70.70;;;;;;5025328;28;20287;-62
2022/05/16 01:15:41;;;;;;;1.20;1.10;;;22.60;70.70;;;;;;5040617;28;20029;-62
2022/05/16 01:18:08;;;;;;;4.77;1.70;;;22.60;70.80;;;;;;5038735;28;20060;-61
2022/05/16 01:21:01;;;;;;;3.63;1.38;;;22.60;70.80;;;;;;5023603;28;20029;-63
2022/05/16 01:23:27;;;;;;;3.47;1.10;;;22.60;71.10;;;;;;5039040;28;20575;-62
2022/05/16 01:25:52;;;;;;;6.38;1.50;;;22.60;71.30;;;;;;5024361;28;20041;-61
2022/05/16 01:28:23;;;;;;;2.85;1.30;;;22.50;71.40;;;;;;5042033;28;20138;-62
2022/05/16 01:30:49;;;;;;;2.47;1.40;;;22.50;71.50;;;;;;5022131;28;20068;-61
2022/05/16 01:33:15;;;;;;;2.60;1.40;;;22.50;71.70;;;;;;5040861;28;20132;-61
2022/05/16 01:35:41;;;;;;;3.30;1.23;;;22.50;71.70;;;;;;5039942;28;20489;-61
2022/05/16 01:38:19;;;;;;;2.00;1.50;;;22.40;71.80;;;;;;5041778;28;20124;-61
2022/05/16 01:40:48;;;;;;;1.85;1.30;;;22.40;71.90;;;;;;5040566;28;20043;-62
2022/05/16 01:43:14;;;;;;;1.83;1.10;;;22.40;72.20;;;;;;5041185;28;20041;-60
2022/05/16 01:45:41;;;;;;;1.88;1.33;;;22.40;72.30;;;;;;5038387;28;20025;-61
2022/05/16 01:48:07;;;;;;;1.48;1.10;;;22.30;72.20;;;;;;5041401;28;20545;-62
2022/05/16 01:50:33;;;;;;;1.45;1.17;;;22.30;72.30;;;;;;5036608;28;20046;-61
2022/05/16 01:52:58;;;;;;;1.95;1.38;;;22.30;72.40;;;;;;5043221;28;20110;-61
2022/05/16 01:55:24;;;;;;;2.30;1.40;;;22.30;72.60;;;;;;5041486;28;20129;-62
2022/05/16 01:57:49;;;;;;;3.35;1.40;;;22.30;72.70;;;;;;5038547;28;20114;-61
2022/05/16 02:00:15;;;;;;;3.00;1.50;;;22.30;72.80;;;;;;5038662;28;20026;-61
2022/05/16 02:02:42;;;;;;;3.45;1.30;;;22.30;72.80;;;;;;5019399;28;20064;-61
2022/05/16 02:05:09;;;;;;;3.47;1.60;;;22.20;72.80;;;;;;5036610;28;20507;-61
2022/05/16 02:07:35;;;;;;;2.15;1.30;;;22.20;72.90;;;;;;5040516;28;20551;-61
2022/05/16 02:10:00;;;;;;;3.15;1.52;;;22.20;73.00;;;;;;5040423;28;20509;-61
2022/05/16 02:12:26;;;;;;;2.15;1.38;;;22.20;73.20;;;;;;5040849;28;20583;-61
2022/05/16 02:14:51;;;;;;;2.85;1.15;;;22.20;73.20;;;;;;5039297;28;20055;-61
2022/05/16 02:17:17;;;;;;;4.30;1.83;;;22.10;74.10;;;;;;5041452;28;20037;-60
2022/05/16 02:19:42;;;;;;;1.95;1.10;;;22.10;73.60;;;;;;5040056;28;20048;-62
2022/05/16 02:24:52;;;;;;;3.35;1.40;;;22.10;73.70;;;;;;5040891;28;20048;-61
2022/05/16 02:27:18;;;;;;;3.25;1.60;;;22.10;73.90;;;;;;5036448;28;20866;-61
2022/05/16 02:29:44;;;;;;;2.97;1.65;;;22.10;73.90;;;;;;5039691;28;20117;-61
2022/05/16 02:32:10;;;;;;;1.70;1.40;;;22.00;73.90;;;;;;5023197;28;20021;-61
2022/05/16 02:34:36;;;;;;;2.58;1.42;;;22.00;74.30;;;;;;5039120;28;20132;-62
2022/05/16 02:37:02;;;;;;;2.58;1.30;;;22.00;74.30;;;;;;5040518;28;20103;-62
2022/05/16 02:39:27;;;;;;;3.45;1.60;;;22.00;74.40;;;;;;5039038;28;20497;-61
2022/05/16 02:41:54;;;;;;;4.18;1.67;;;22.00;74.60;;;;;;5038782;28;20292;-61
2022/05/16 02:44:21;;;;;;;2.28;1.30;;;22.00;74.60;;;;;;5035544;28;20095;-62
2022/05/16 02:46:46;;;;;;;6.47;1.45;;;21.90;74.60;;;;;;5039730;28;20498;-62
2022/05/16 02:49:12;;;;;;;1.98;1.52;;;21.90;74.70;;;;;;5038823;28;20018;-62
2022/05/16 02:51:37;;;;;;;1.88;1.38;;;21.90;74.60;;;;;;5040001;28;20079;-61
2022/05/16 02:54:03;;;;;;;4.50;1.60;;;21.90;74.70;;;;;;5035095;28;20465;-61
2022/05/16 02:56:28;;;;;;;2.03;1.50;;;21.90;74.90;;;;;;5039246;28;20048;-62
2022/05/16 02:58:54;;;;;;;2.33;1.45;;;21.80;74.80;;;;;;5038521;28;20115;-62
2022/05/16 03:01:19;;;;;;;1.42;1.25;;;21.80;75.00;;;;;;5039151;28;20496;-62
2022/05/16 03:03:45;;;;;;;2.80;1.60;;;21.80;75.00;;;;;;5040777;28;20542;-61
2022/05/16 03:06:10;;;;;;;10.75;1.40;;;21.80;75.00;;;;;;5040653;28;20116;-61
2022/05/16 03:08:37;;;;;;;1.98;1.33;;;21.70;75.00;;;;;;5038774;28;20195;-61
2022/05/16 03:11:03;;;;;;;3.70;1.50;;;21.60;75.10;;;;;;5023291;28;20460;-61
2022/05/16 03:13:28;;;;;;;3.28;1.33;;;21.70;75.20;;;;;;5022047;28;20033;-62
2022/05/16 03:15:54;;;;;;;2.28;1.40;;;21.70;75.30;;;;;;5041269;28;20173;-61
2022/05/16 03:18:19;;;;;;;4.95;1.52;;;21.70;75.40;;;;;;5035890;28;20032;-61
2022/05/16 03:20:45;;;;;;;2.28;1.23;;;21.60;75.50;;;;;;5004206;28;20060;-61
2022/05/16 03:23:10;;;;;;;1.77;1.58;;;21.60;75.40;;;;;;5039627;28;20037;-62
2022/05/16 03:25:36;;;;;;;2.60;1.40;;;22.00;75.70;;;;;;5039908;28;20028;-61
2022/05/16 03:28:01;;;;;;;5.35;1.30;;;21.60;75.50;;;;;;5039310;28;20139;-61
2022/05/16 03:30:28;;;;;;;3.80;1.45;;;21.60;75.60;;;;;;5038186;28;20365;-61
2022/05/16 03:32:54;;;;;;;2.67;1.40;;;21.50;75.60;;;;;;5037303;28;20025;-61
2022/05/16 03:35:19;;;;;;;2.78;1.63;;;21.50;75.70;;;;;;5039808;28;20094;-62
2022/05/16 03:37:45;;;;;;;1.63;1.38;;;21.50;75.80;;;;;;5038423;28;20053;-62
2022/05/16 03:42:55;;;;;;;2.13;1.55;;;21.50;75.80;;;;;;5037409;28;20568;-61
2022/05/16 03:45:21;;;;;;;2.42;1.38;;;21.50;75.90;;;;;;5035464;28;20104;-61
2022/05/16 03:47:46;;;;;;;1.85;1.50;;;21.40;75.90;;;;;;5036350;28;20460;-62
2022/05/16 03:50:12;;;;;;;3.97;1.60;;;21.40;76.60;;;;;;5040424;28;20029;-61
2022/05/16 03:52:38;;;;;;;2.30;1.60;;;21.40;76.10;;;;;;5036581;28;20400;-61
2022/05/16 03:55:05;;;;;;;1.65;1.55;;;21.40;76.10;;;;;;5036579;28;20112;-61
2022/05/16 03:57:32;;;;;;;1.80;1.40;;;21.40;76.30;;;;;;5037593;28;20117;-62
2022/05/16 03:59:57;;;;;;;4.00;1.50;;;21.40;76.30;;;;;;5036869;28;20040;-61
2022/05/16 04:02:23;;;;;;;1.90;1.42;;;21.30;76.20;;;;;;5037846;28;20520;-62
2022/05/16 04:04:48;;;;;;;2.42;1.48;;;21.30;76.20;;;;;;5037814;28;20025;-62
2022/05/16 04:07:14;;;;;;;1.58;1.30;;;21.30;76.30;;;;;;5039272;28;20112;-62
2022/05/16 04:09:39;;;;;;;2.38;1.50;;;21.30;76.50;;;;;;5038133;28;20441;-62
2022/05/16 04:12:06;;;;;;;1.83;1.50;;;21.30;76.60;;;;;;5036840;28;20320;-61
2022/05/16 04:14:32;;;;;;;3.38;1.30;;;21.30;76.50;;;;;;5037788;28;20127;-61
2022/05/16 04:16:58;;;;;;;2.80;1.25;;;21.30;76.50;;;;;;5037113;28;20108;-61
2022/05/16 04:19:24;;;;;;;1.92;1.60;;;21.20;76.50;;;;;;5037029;28;20025;-61
2022/05/16 04:21:49;;;;;;;1.73;1.60;;;21.20;76.50;;;;;;5037684;28;20025;-61
2022/05/16 04:24:15;;;;;;;2.75;1.40;;;21.20;76.60;;;;;;5037445;28;20550;-61
2022/05/16 04:26:41;;;;;;;2.95;1.40;;;21.10;76.70;;;;;;5035088;28;20060;-62
2022/05/16 04:29:07;;;;;;;31.92;5.40;;;21.20;76.80;;;;;;5037910;28;20029;-61
2022/05/16 04:31:33;;;;;;;23.58;3.65;;;21.20;76.80;;;;;;5041008;28;20079;-61
2022/05/16 04:33:58;;;;;;;19.92;2.97;;;21.20;77.00;;;;;;5041582;28;20067;-62
2022/05/16 04:36:24;;;;;;;30.95;4.03;;;21.20;77.00;;;;;;5042900;28;20028;-62
2022/05/16 04:38:49;;;;;;;22.38;3.85;;;21.10;77.10;;;;;;5021225;28;20051;-61
2022/05/16 04:43:59;;;;;;;17.13;3.65;;;21.10;77.00;;;;;;5042046;28;20120;-62
2022/05/16 04:46:24;;;;;;;17.33;3.33;;;21.10;77.10;;;;;;5041554;28;20021;-60
2022/05/16 04:48:50;;;;;;;28.17;3.97;;;21.10;77.10;;;;;;5043026;28;20105;-61
2022/05/16 04:51:16;;;;;;;15.23;3.45;;;21.10;76.90;;;;;;5040128;28;20242;-61
2022/05/16 04:53:41;;;;;;;20.02;3.95;;;21.10;77.00;;;;;;5041495;28;20521;-61
2022/05/16 04:56:07;;;;;;;14.07;3.40;;;21.10;77.00;;;;;;5041841;28;20109;-62
2022/05/16 04:58:36;;;;;;;24.95;4.22;;;21.10;76.90;;;;;;5041380;28;20067;-61
2022/05/16 05:01:02;;;;;;;12.80;3.47;;;21.10;77.10;;;;;;5037889;28;20032;-62
2022/05/16 05:03:28;;;;;;;29.65;3.88;;;21.10;77.10;;;;;;5040602;28;20013;-62
2022/05/16 05:05:53;;;;;;;19.85;3.58;;;21.10;77.00;;;;;;5042247;28;20044;-62
2022/05/16 05:08:19;;;;;;;23.77;3.80;;;21.10;76.90;;;;;;5040375;28;20463;-61
2022/05/16 05:16:15;;;;;;;25.52;3.55;;;21.10;77.40;;;;;;5025817;28;20118;-61
2022/05/16 05:18:40;;;;;;;12.68;3.20;;;21.10;77.40;;;;;;5020700;28;20178;-63
2022/05/16 05:21:06;;;;;;;18.15;3.75;;;21.10;77.50;;;;;;5023652;28;20113;-62
2022/05/16 05:23:33;;;;;;;26.60;4.35;;;21.10;77.30;;;;;;5039264;28;20043;-62
2022/05/16 05:25:58;;;;;;;16.70;3.50;;;21.00;77.10;;;;;;5041027;28;20542;-62
2022/05/16 05:28:24;;;;;;;21.95;3.25;;;21.10;77.10;;;;;;5040713;28;20033;-62
2022/05/16 05:30:49;;;;;;;14.63;3.33;;;21.10;77.20;;;;;;5037762;28;20061;-62
2022/05/16 05:33:15;;;;;;;14.88;2.83;;;21.10;77.20;;;;;;5020940;28;20083;-62
2022/05/16 05:35:41;;;;;;;18.02;4.05;;;21.10;77.20;;;;;;5042104;28;20158;-61
2022/05/16 05:38:06;;;;;;;13.27;3.58;;;21.10;76.90;;;;;;5041164;28;20116;-61
2022/05/16 05:40:32;;;;;;;14.95;2.88;;;21.10;76.90;;;;;;5037463;28;20041;-63
2022/05/16 05:43:04;;;;;;;12.45;3.28;;;21.10;76.80;;;;;;5042335;28;20033;-62
2022/05/16 05:45:30;;;;;;;13.73;3.30;;;21.10;76.80;;;;;;5022810;28;20053;-61
2022/05/16 05:47:55;;;;;;;14.82;2.85;;;21.10;76.80;;;;;;5041641;28;20067;-61
2022/05/16 05:50:21;;;;;;;16.45;3.38;;;21.20;76.80;;;;;;5039832;28;20104;-61
2022/05/16 05:52:46;;;;;;;10.50;3.38;;;21.20;76.80;;;;;;5038597;28;20036;-63
2022/05/16 05:55:12;;;;;;;11.02;2.72;;;21.20;77.10;;;;;;5040200;28;20033;-61
2022/05/16 05:57:37;;;;;;;14.77;3.50;;;21.20;77.20;;;;;;5040544;28;20041;-61
2022/05/16 06:00:04;;;;;;;12.65;2.60;;;21.20;77.20;;;;;;5041287;28;20029;-60
2022/05/16 06:02:29;;;;;;;12.30;3.28;;;21.20;76.80;;;;;;5036570;28;20123;-61
2022/05/16 06:04:55;;;;;;;8.48;2.83;;;21.20;77.20;;;;;;5035324;28;20132;-61
2022/05/16 06:07:20;;;;;;;8.65;2.88;;;21.20;78.10;;;;;;5040919;28;20108;-62
2022/05/16 06:09:46;;;;;;;14.57;3.17;;;21.20;78.00;;;;;;5040247;28;20049;-62
2022/05/16 06:12:11;;;;;;;10.68;2.65;;;21.20;78.90;;;;;;5037984;28;20037;-65
2022/05/16 06:14:37;;;;;;;9.55;2.65;;;21.20;79.10;;;;;;5019959;28;20112;-61
2022/05/16 06:17:03;;;;;;;8.05;2.75;;;21.10;79.50;;;;;;5019922;28;20040;-61
2022/05/16 06:19:28;;;;;;;13.20;3.08;;;21.10;80.00;;;;;;5021883;28;20033;-61
2022/05/16 06:21:54;;;;;;;7.53;2.53;;;21.10;79.80;;;;;;5039707;28;20056;-61
2022/05/16 06:27:04;;;;;;;14.82;2.90;;;21.10;80.40;;;;;;5035565;28;20047;-61
2022/05/16 06:29:30;;;;;;;15.65;3.50;;;20.90;80.40;;;;;;5037310;28;20083;-62
2022/05/16 06:31:55;;;;;;;16.08;3.80;;;21.10;80.80;;;;;;5034255;28;20048;-62
2022/05/16 06:34:21;;;;;;;19.65;3.38;;;21.00;81.10;;;;;;5008316;28;20421;-61
2022/05/16 06:36:46;;;;;;;16.52;2.92;;;21.10;80.80;;;;;;5011826;28;20506;-61
2022/05/16 06:39:12;;;;;;;17.00;3.20;;;21.10;80.60;;;;;;5032275;28;20033;-62
2022/05/16 06:41:38;;;;;;;16.75;2.65;;;21.10;80.50;;;;;;5036088;28;20060;-62
2022/05/16 06:44:04;;;;;;;19.13;2.90;;;21.20;80.50;;;;;;5036721;28;20597;-61
2022/05/16 06:46:29;;;;;;;15.85;3.03;;;21.20;80.60;;;;;;5039587;28;20017;-61
2022/05/16 06:48:55;;;;;;;16.70;3.35;;;21.20;80.40;;;;;;5036632;28;20017;-61
2022/05/16 06:51:20;;;;;;;14.77;3.08;;;21.20;80.10;;;;;;5017326;28;20110;-61
2022/05/16 06:53:46;;;;;;;19.65;3.38;;;21.20;80.30;;;;;;5036614;28;20037;-61
2022/05/16 06:56:11;;;;;;;15.05;2.58;;;21.20;79.90;;;;;;5039540;28;20040;-61
2022/05/16 06:58:37;;;;;;;13.55;3.28;;;21.20;80.10;;;;;;5020397;28;20029;-61
2022/05/16 07:01:03;;;;;;;12.43;3.30;;;21.30;80.30;;;;;;5036113;28;20036;-62
2022/05/16 07:03:29;;;;;;;16.10;3.13;;;21.30;80.10;;;;;;5013564;28;20033;-62
2022/05/16 07:05:55;;;;;;;14.57;2.90;;;21.30;79.50;;;;;;5033673;28;20025;-61
2022/05/16 07:08:21;;;;;;;31.75;4.40;;;21.30;79.20;;;;;;5033086;28;20236;-61
2022/05/16 07:10:48;;;;;;;13.25;3.97;;;21.40;79.20;;;;;;5019928;28;20544;-61
2022/05/16 07:13:14;;;;;;;16.35;3.05;;;21.30;79.30;;;;;;5028568;28;20025;-62
2022/05/16 07:15:39;;;;;;;14.95;3.03;;;21.30;78.90;;;;;;5030502;28;20266;-62
2022/05/16 07:18:05;;;;;;;19.98;3.40;;;21.30;78.60;;;;;;5033337;28;20032;-61
2022/05/16 07:20:31;;;;;;;11.43;2.80;;;21.40;78.60;;;;;;5012618;28;20049;-61
2022/05/16 07:22:58;;;;;;;12.98;2.67;;;21.40;78.50;;;;;;5028118;28;20404;-60
2022/05/16 07:25:25;;;;;;;13.95;3.03;;;21.40;78.40;;;;;;5035839;28;20021;-60
2022/05/16 07:27:57;;;;;;;11.52;2.92;;;21.40;78.30;;;;;;5032746;28;20036;-60
2022/05/16 07:30:33;;;;;;;18.25;3.47;;;21.40;78.20;;;;;;5031997;28;20091;-60
2022/05/16 07:32:59;;;;;;;14.38;2.65;;;21.40;78.20;;;;;;5037058;28;20058;-63
2022/05/16 07:35:30;;;;;;;23.27;3.08;;;21.40;78.30;;;;;;5019923;28;20027;-63
2022/05/16 07:37:56;;;;;;;25.67;4.47;;;21.50;78.30;;;;;;5031379;28;20021;-61
2022/05/16 07:40:23;;;;;;;22.63;3.92;;;21.40;78.30;;;;;;5034294;28;20041;-61
2022/05/16 07:42:50;;;;;;;30.63;4.40;;;21.40;78.30;;;;;;5010539;28;20083;-61
2022/05/16 07:45:16;;;;;;;29.52;4.05;;;21.40;78.20;;;;;;5031181;28;20134;-60
2022/05/16 07:47:41;;;;;;;19.65;3.40;;;21.40;78.30;;;;;;5016795;28;20751;-61
2022/05/16 07:50:07;;;;;;;18.05;3.60;;;21.40;78.30;;;;;;5035700;28;20025;-60
2022/05/16 07:52:33;;;;;;;20.63;3.50;;;21.40;78.30;;;;;;5037109;28;20029;-60
2022/05/16 07:54:58;;;;;;;19.13;4.32;;;21.50;78.10;;;;;;5035689;28;20052;-60
2022/05/16 07:57:24;;;;;;;20.60;4.28;;;21.50;78.20;;;;;;5019591;28;20614;-60
2022/05/16 07:59:49;;;;;;;28.08;4.15;;;21.50;78.20;;;;;;5032954;28;20025;-61
2022/05/16 08:02:15;;;;;;;29.80;5.07;;;21.50;77.90;;;;;;5035066;28;20025;-61
2022/05/16 08:04:41;;;;;;;16.48;4.18;;;21.50;77.90;;;;;;5039037;28;20036;-60
2022/05/16 08:07:07;;;;;;;17.85;4.60;;;21.60;77.90;;;;;;5017964;28;20087;-61
2022/05/16 08:12:32;;;;;;;26.38;4.65;;;21.60;77.60;;;;;;5036182;28;20486;-61
2022/05/16 08:14:57;;;;;;;28.00;4.93;;;21.60;77.40;;;;;;5018768;28;20035;-60
2022/05/16 08:17:23;;;;;;;45.97;5.88;;;21.60;77.20;;;;;;5032674;28;20660;-61
2022/05/16 08:19:49;;;;;;;41.55;5.75;;;21.60;77.10;;;;;;5033758;28;20037;-63
2022/05/16 08:22:17;;;;;;;29.15;5.55;;;21.70;77.10;;;;;;5028781;28;20039;-61
2022/05/16 08:24:43;;;;;;;73.07;8.75;;;21.70;77.10;;;;;;5036742;28;20033;-60
2022/05/16 08:27:09;;;;;;;44.65;6.10;;;21.60;76.90;;;;;;5035324;28;20033;-60
2022/05/16 08:29:35;;;;;;;31.70;5.25;;;21.70;76.80;;;;;;5014770;28;20035;-61
2022/05/16 08:32:01;;;;;;;48.30;6.03;;;21.70;76.70;;;;;;5030387;28;20031;-60
2022/05/16 08:34:27;;;;;;;26.40;5.32;;;21.70;76.60;;;;;;5028098;28;20132;-61
2022/05/16 08:39:52;;;;;;;41.55;6.15;;;21.80;76.20;;;;;;5033077;28;20123;-61
2022/05/16 08:42:19;;;;;;;68.07;10.15;;;21.90;76.30;;;;;;5020658;28;20115;-61
2022/05/16 08:45:00;;;;;;;23.88;5.43;;;21.90;76.30;;;;;;5015756;28;20597;-61
2022/05/16 08:47:31;;;;;;;64.88;7.72;;;21.90;76.10;;;;;;5033541;28;20030;-63
2022/05/16 08:49:58;;;;;;;72.28;8.45;;;21.90;76.10;;;;;;5034028;28;20485;-61
2022/05/16 08:52:46;;;;;;;31.63;5.72;;;21.90;76.10;;;;;;5016811;28;20110;-61
2022/05/16 08:55:34;;;;;;;37.75;6.15;;;21.90;75.80;;;;;;5032561;28;20032;-61
2022/05/16 08:58:01;;;;;;;25.80;6.32;;;22.00;75.80;;;;;;5002380;28;20056;-61
2022/05/16 09:00:48;;;;;;;49.17;8.63;;;22.00;75.80;;;;;;5030316;28;20029;-61
2022/05/16 09:03:36;;;;;;;44.70;7.22;;;21.90;75.80;;;;;;5017943;28;20103;-61
2022/05/16 09:06:12;;;;;;;36.97;6.05;;;22.00;76.00;;;;;;5032188;28;20091;-61
2022/05/16 09:08:49;;;;;;;43.35;6.72;;;22.00;75.70;;;;;;5019471;28;20041;-61
2022/05/16 09:11:48;;;;;;;54.40;7.43;;;22.00;75.70;;;;;;5027292;28;20112;-61
2022/05/16 09:14:52;;;;;;;57.92;8.35;;;22.00;75.70;;;;;;5011510;28;20025;-61
2022/05/16 09:17:44;;;;;;;66.47;9.85;;;22.00;76.00;;;;;;5032907;28;20364;-64
2022/05/16 09:20:18;;;;;;;62.42;7.70;;;22.10;76.10;;;;;;5020741;28;20037;-61
2022/05/16 09:23:05;;;;;;;61.05;8.02;;;22.10;75.90;;;;;;5032671;28;20580;-61
2022/05/16 09:26:02;;;;;;;52.95;8.27;;;22.10;75.80;;;;;;5026177;28;20440;-61
2022/05/16 09:28:37;;;;;;;100.00;12.10;;;22.10;75.80;;;;;;5028373;28;20059;-63
2022/05/16 09:31:31;;;;;;;73.05;8.15;;;22.20;75.70;;;;;;5031449;28;20034;-61
2022/05/16 09:33:58;;;;;;;58.75;8.23;;;22.20;75.50;;;;;;5038923;28;20040;-61
2022/05/16 09:36:25;;;;;;;36.78;7.00;;;22.20;75.50;;;;;;5033475;28;20500;-61
2022/05/16 09:38:51;;;;;;;51.05;7.38;;;22.30;75.60;;;;;;5017574;28;20048;-62
2022/05/16 09:41:38;;;;;;;51.05;7.60;;;22.30;75.50;;;;;;5032490;28;20190;-62
2022/05/16 09:44:11;;;;;;;61.08;9.32;;;22.30;75.60;;;;;;5031632;28;20153;-62
2022/05/16 09:46:39;;;;;;;67.47;10.35;;;22.40;75.70;;;;;;5035325;28;20120;-62
2022/05/16 09:49:05;;;;;;;51.33;7.88;;;22.40;75.70;;;;;;5029913;28;20039;-62
2022/05/16 09:51:41;;;;;;;64.82;8.98;;;22.40;75.50;;;;;;5033306;28;20021;-61
2022/05/16 09:54:31;;;;;;;;;;;22.50;75.40;;;;;;5036865;28;20052;-62
2022/05/16 09:57:22;;;;;;;49.05;7.82;;;22.50;75.40;;;;;;5030986;28;20510;-62
2022/05/16 09:59:47;;;;;;;70.55;9.82;;;22.50;75.40;;;;;;5031777;28;20440;-61
2022/05/16 10:02:18;;;;;;;60.15;8.70;;;22.60;75.40;;;;;;5034875;28;20052;-61
2022/05/16 10:04:45;;;;;;;51.70;8.35;;;22.60;75.20;;;;;;5033389;28;20614;-61
2022/05/16 10:07:11;;;;;;;76.45;8.93;;;22.70;75.20;;;;;;5029671;28;20073;-62
2022/05/16 10:09:48;;;;;;;67.85;8.13;;;22.60;75.20;;;;;;5032510;28;20104;-61
2022/05/16 10:12:17;;;;;;;57.35;8.13;;;22.70;75.00;;;;;;5016119;28;20421;-62
2022/05/16 10:14:42;;;;;;;53.10;7.13;;;22.70;75.00;;;;;;5021703;28;20021;-61
2022/05/16 10:17:09;;;;;;;60.90;7.47;;;22.80;74.60;;;;;;5017547;28;20407;-61
2022/05/16 10:19:35;;;;;;;49.78;8.30;;;22.80;74.70;;;;;;5012220;28;20264;-61
2022/05/16 10:22:03;;;;;;;34.33;7.00;;;22.80;74.50;;;;;;5014602;28;20029;-61
2022/05/16 10:24:32;;;;;;;45.13;7.72;;;22.80;74.30;;;;;;5011333;28;20021;-64
2022/05/16 10:27:01;;;;;;;46.15;7.18;;;22.80;73.90;;;;;;5028227;28;20028;-62
2022/05/16 10:29:29;;;;;;;35.40;6.72;;;22.90;73.60;;;;;;5033607;28;20028;-62
2022/05/16 10:35:02;;;;;;;46.38;5.47;;;23.00;73.30;;;;;;5023863;28;20083;-61
2022/05/16 10:37:29;;;;;;;44.03;6.85;;;23.00;72.80;;;;;;5013349;28;20175;-62
2022/05/16 10:40:06;;;;;;;60.80;7.95;;;23.00;72.80;;;;;;5006307;28;20029;-61
2022/05/16 10:42:38;;;;;;;31.88;6.50;;;23.10;73.40;;;;;;5007967;28;20025;-61
2022/05/16 10:45:09;;;;;;;42.13;5.78;;;23.10;73.40;;;;;;5012745;28;20114;-61
2022/05/16 10:48:00;;;;;;;38.63;5.72;;;23.10;73.30;;;;;;5029511;28;20021;-62
2022/05/16 10:50:42;;;;;;;28.70;6.13;;;23.20;73.30;;;;;;5015182;28;20043;-61
2022/05/16 10:53:12;;;;;;;41.55;5.85;;;23.20;73.40;;;;;;5018942;28;20032;-61
2022/05/16 10:55:55;;;;;;;29.95;5.57;;;23.30;72.90;;;;;;5029290;28;20044;-60
2022/05/16 10:58:58;;;;;;;31.33;5.43;;;23.30;72.70;;;;;;5025091;28;20048;-61
2022/05/16 11:01:58;;;;;;;32.60;5.47;;;23.40;72.40;;;;;;5030978;28;20111;-61
2022/05/16 11:04:44;;;;;;;35.25;5.05;;;23.50;72.20;;;;;;5026811;28;20094;-61
2022/05/16 11:07:15;;;;;;;;;;;23.50;72.10;;;;;;5034578;28;20068;-62
2022/05/16 11:09:45;;;;;;;44.58;7.30;;;23.60;71.80;;;;;;5025977;28;19909;-61
2022/05/16 11:12:18;;;;;;;49.53;7.30;;;23.70;71.80;;;;;;5030214;28;20045;-61
2022/05/16 11:15:02;;;;;;;29.20;5.60;;;23.70;71.30;;;;;;5007129;28;20037;-61
2022/05/16 11:17:55;;;;;;;33.15;6.32;;;23.80;71.20;;;;;;5028813;28;20032;-62
2022/05/16 11:20:42;;;;;;;31.25;5.68;;;24.00;70.80;;;;;;5026326;28;21683;-61
2022/05/16 11:23:23;;;;;;;49.40;6.75;;;24.00;70.00;;;;;;5031282;28;20068;-61
2022/05/16 11:26:02;;;;;;;29.35;5.15;;;24.20;69.70;;;;;;5031670;28;20060;-61
2022/05/16 11:28:31;;;;;;;39.78;5.95;;;24.30;69.60;;;;;;5013030;28;20039;-61
2022/05/16 11:30:59;;;;;;;40.83;6.15;;;24.30;69.10;;;;;;5024923;28;20190;-61
2022/05/16 11:33:44;;;;;;;36.80;5.85;;;24.40;69.10;;;;;;5032355;28;20048;-61
2022/05/16 11:36:17;;;;;;;33.50;5.85;;;24.40;68.60;;;;;;5037908;28;20025;-61
2022/05/16 11:39:02;;;;;;;48.47;6.50;;;24.40;69.00;;;;;;5032064;28;20723;-60
2022/05/16 11:41:43;;;;;;;22.55;5.35;;;24.40;68.40;;;;;;5014592;28;20044;-63
2022/05/16 11:44:23;;;;;;;23.00;4.68;;;24.40;68.30;;;;;;5033121;28;20022;-60
2022/05/16 11:46:57;;;;;;;27.60;5.63;;;24.40;68.50;;;;;;5017218;28;20437;-61
2022/05/16 11:49:44;;;;;;;15.52;4.47;;;24.40;68.30;;;;;;5032983;28;20116;-61
2022/05/16 11:52:17;;;;;;;35.28;5.28;;;24.50;68.70;;;;;;5028925;28;20025;-61
2022/05/16 11:54:49;;;;;;;27.60;5.55;;;24.50;68.50;;;;;;5034853;28;20037;-61
2022/05/16 12:00:32;;;;;;;22.90;4.30;;;24.60;68.70;;;;;;5015805;28;21917;-61
2022/05/16 12:03:07;;;;;;;15.35;4.20;;;24.60;68.60;;;;;;5020504;28;20033;-61
2022/05/16 12:05:38;;;;;;;22.00;4.60;;;24.70;67.20;;;;;;5033586;28;20033;-62
2022/05/16 12:08:26;;;;;;;23.02;4.53;;;24.70;67.20;;;;;;5005494;28;20034;-61
2022/05/16 12:10:56;;;;;;;17.80;4.50;;;24.80;67.30;;;;;;5028253;28;20753;-62
2022/05/16 12:13:24;;;;;;;14.57;3.78;;;24.80;67.10;;;;;;5034319;28;20029;-61
2022/05/16 12:16:11;;;;;;;16.20;3.50;;;24.80;67.20;;;;;;5014528;28;20048;-61
2022/05/16 12:18:40;;;;;;;14.10;3.85;;;24.90;67.30;;;;;;5027837;28;20040;-61
2022/05/16 12:21:30;;;;;;;12.57;3.97;;;24.90;67.10;;;;;;5032655;28;20025;-61
2022/05/16 12:23:57;;;;;;;15.70;4.05;;;25.00;66.70;;;;;;5032864;28;20430;-60
2022/05/16 12:26:26;;;;;;;13.02;3.60;;;25.10;65.00;;;;;;5031414;28;20040;-61
2022/05/16 12:29:13;;;;;;;12.15;3.53;;;25.10;65.20;;;;;;5029898;28;20060;-62
2022/05/16 12:31:59;;;;;;;17.08;4.05;;;25.20;64.90;;;;;;5023242;28;20050;-61
2022/05/16 12:34:31;;;;;;;;;;;25.30;63.60;;;;;;5030723;28;20039;-62
2022/05/16 12:36:57;;;;;;;12.75;4.07;;;25.30;64.60;;;;;;5025053;28;20034;-61
2022/05/16 12:39:49;;;;;;;9.32;3.05;;;25.40;63.20;;;;;;5015069;28;20040;-61
2022/05/16 12:42:27;;;;;;;9.52;2.80;;;25.40;63.40;;;;;;5022053;28;20485;-61
2022/05/16 12:44:56;;;;;;;11.48;3.60;;;25.50;62.30;;;;;;5035482;28;20025;-61
2022/05/16 12:47:37;;;;;;;13.48;3.38;;;25.60;61.90;;;;;;5037576;28;20684;-62
2022/05/16 12:50:34;;;;;;;14.00;3.08;;;25.60;61.70;;;;;;5038068;28;20119;-61
2022/05/16 12:53:12;;;;;;;;;;;25.80;62.40;;;;;;5039404;28;20110;-61
2022/05/16 12:55:46;;;;;;;9.88;3.20;;;25.80;61.80;;;;;;5028480;28;19971;-62
2022/05/16 12:58:26;;;;;;;11.75;3.13;;;26.00;61.90;;;;;;5033162;28;20047;-62
2022/05/16 13:00:57;;;;;;;14.85;3.50;;;26.00;60.80;;;;;;5036879;28;20025;-61
2022/05/16 13:03:38;;;;;;;14.13;3.45;;;26.10;60.40;;;;;;5021307;28;20456;-61
2022/05/16 13:06:11;;;;;;;9.75;3.28;;;26.20;60.70;;;;;;5037847;28;20030;-62
2022/05/16 13:08:45;;;;;;;13.02;3.30;;;26.20;60.60;;;;;;5036453;28;20044;-62
2022/05/16 13:11:50;;;;;;;10.43;2.95;;;26.30;59.40;;;;;;5033963;28;20021;-61
2022/05/16 13:14:36;;;;;;;12.50;3.25;;;26.40;58.70;;;;;;5037745;28;20453;-61
2022/05/16 13:17:06;;;;;;;;;;;26.40;58.20;;;;;;5036407;28;20082;-61
2022/05/16 13:19:32;;;;;;;15.20;2.83;;;26.40;58.20;;;;;;5033815;28;19966;-61
2022/05/16 13:22:04;;;;;;;17.55;4.07;;;26.40;58.00;;;;;;5035661;28;20052;-61
2022/05/16 13:24:30;;;;;;;24.40;3.80;;;26.50;58.50;;;;;;5036490;28;20078;-61
2022/05/16 13:29:43;;;;;;;16.85;3.40;;;26.60;57.80;;;;;;4993520;28;20040;-61